sensor_id;sensor_type;location;lat;lon;timestamp;temperature;humidity
37806;DHT22;25082;50.870;0.022;2023-04-29T00:01:18;18.30;67.00
37806;DHT22;25082;50.870;0.022;2023-04-29T00:03:44;18.30;67.00
37806;DHT22;25082;50.870;0.022;2023-04-29T00:06:09;18.20;66.90
37806;DHT22;25082;50.870;0.022;2023-04-29T00:08:36;18.30;66.90
37806;DHT22;25082;50.870;0.022;2023-04-29T00:11:02;18.20;67.00
37806;DHT22;25082;50.870;0.022;2023-04-29T00:13:28;18.20;66.90
37806;DHT22;25082;50.870;0.022;2023-04-29T00:15:54;18.20;66.90
37806;DHT22;25082;50.870;0.022;2023-04-29T00:18:19;18.20;66.90
37806;DHT22;25082;50.870;0.022;2023-04-29T00:20:45;18.20;66.90
37806;DHT22;25082;50.870;0.022;2023-04-29T00:23:11;18.20;66.90
37806;DHT22;25082;50.870;0.022;2023-04-29T00:25:36;18.20;66.90
37806;DHT22;25082;50.870;0.022;2023-04-29T00:28:04;18.20;66.90
37806;DHT22;25082;50.870;0.022;2023-04-29T00:30:30;18.20;66.90
37806;DHT22;25082;50.870;0.022;2023-04-29T00:32:57;18.20;66.80
37806;DHT22;25082;50.870;0.022;2023-04-29T00:35:23;18.20;66.90
37806;DHT22;25082;50.870;0.022;2023-04-29T00:37:49;18.20;66.80
37806;DHT22;25082;50.870;0.022;2023-04-29T00:40:15;18.20;66.80
37806;DHT22;25082;50.870;0.022;2023-04-29T00:42:42;18.20;66.90
37806;DHT22;25082;50.870;0.022;2023-04-29T00:45:08;18.10;66.80
37806;DHT22;25082;50.870;0.022;2023-04-29T00:47:36;18.10;66.80
37806;DHT22;25082;50.870;0.022;2023-04-29T00:50:03;18.10;66.70
37806;DHT22;25082;50.870;0.022;2023-04-29T00:52:30;18.20;66.80
37806;DHT22;25082;50.870;0.022;2023-04-29T00:54:58;18.10;66.70
37806;DHT22;25082;50.870;0.022;2023-04-29T00:57:25;18.10;66.70
37806;DHT22;25082;50.870;0.022;2023-04-29T00:59:54;18.10;66.60
37806;DHT22;25082;50.870;0.022;2023-04-29T01:02:20;18.10;66.70
37806;DHT22;25082;50.870;0.022;2023-04-29T01:04:46;18.10;66.70
37806;DHT22;25082;50.870;0.022;2023-04-29T01:07:30;18.10;66.60
37806;DHT22;25082;50.870;0.022;2023-04-29T01:10:03;18.10;66.60
37806;DHT22;25082;50.870;0.022;2023-04-29T01:12:53;18.10;66.70
37806;DHT22;25082;50.870;0.022;2023-04-29T01:15:31;18.00;66.60
37806;DHT22;25082;50.870;0.022;2023-04-29T01:18:04;18.10;66.60
37806;DHT22;25082;50.870;0.022;2023-04-29T01:20:34;18.00;66.60
37806;DHT22;25082;50.870;0.022;2023-04-29T01:23:00;18.00;66.50
37806;DHT22;25082;50.870;0.022;2023-04-29T01:25:26;18.10;66.60
37806;DHT22;25082;50.870;0.022;2023-04-29T01:30:38;18.00;66.50
37806;DHT22;25082;50.870;0.022;2023-04-29T01:33:28;18.00;66.50
37806;DHT22;25082;50.870;0.022;2023-04-29T01:36:15;18.00;66.60
37806;DHT22;25082;50.870;0.022;2023-04-29T01:43:38;18.00;66.50
37806;DHT22;25082;50.870;0.022;2023-04-29T01:46:05;18.00;66.50
37806;DHT22;25082;50.870;0.022;2023-04-29T01:48:34;18.00;66.50
37806;DHT22;25082;50.870;0.022;2023-04-29T01:50:59;18.00;66.40
37806;DHT22;25082;50.870;0.022;2023-04-29T01:53:26;18.00;66.50
37806;DHT22;25082;50.870;0.022;2023-04-29T01:55:51;18.00;66.40
37806;DHT22;25082;50.870;0.022;2023-04-29T01:58:17;18.00;66.50
37806;DHT22;25082;50.870;0.022;2023-04-29T02:00:43;17.90;66.40
37806;DHT22;25082;50.870;0.022;2023-04-29T02:03:09;17.90;66.40
37806;DHT22;25082;50.870;0.022;2023-04-29T02:05:34;17.90;66.30
37806;DHT22;25082;50.870;0.022;2023-04-29T02:08:01;17.90;66.20
37806;DHT22;25082;50.870;0.022;2023-04-29T02:10:27;17.90;66.20
37806;DHT22;25082;50.870;0.022;2023-04-29T02:12:53;17.90;66.30
37806;DHT22;25082;50.870;0.022;2023-04-29T02:15:19;17.90;66.20
37806;DHT22;25082;50.870;0.022;2023-04-29T02:17:45;17.90;66.20
37806;DHT22;25082;50.870;0.022;2023-04-29T02:20:11;17.90;66.20
37806;DHT22;25082;50.870;0.022;2023-04-29T02:22:37;17.90;66.20
37806;DHT22;25082;50.870;0.022;2023-04-29T02:25:04;17.90;66.20
37806;DHT22;25082;50.870;0.022;2023-04-29T02:27:31;17.90;66.20
37806;DHT22;25082;50.870;0.022;2023-04-29T02:29:56;17.90;66.20
37806;DHT22;25082;50.870;0.022;2023-04-29T02:32:22;17.90;66.20
37806;DHT22;25082;50.870;0.022;2023-04-29T02:34:48;17.90;66.20
37806;DHT22;25082;50.870;0.022;2023-04-29T02:37:13;17.90;66.20
37806;DHT22;25082;50.870;0.022;2023-04-29T02:39:40;17.80;66.10
37806;DHT22;25082;50.870;0.022;2023-04-29T02:42:06;17.80;66.00
37806;DHT22;25082;50.870;0.022;2023-04-29T02:44:32;17.80;66.00
37806;DHT22;25082;50.870;0.022;2023-04-29T02:46:58;17.80;66.00
37806;DHT22;25082;50.870;0.022;2023-04-29T02:49:23;17.80;66.00
37806;DHT22;25082;50.870;0.022;2023-04-29T02:51:49;17.80;66.00
37806;DHT22;25082;50.870;0.022;2023-04-29T02:54:15;17.80;66.00
37806;DHT22;25082;50.870;0.022;2023-04-29T02:56:42;17.80;66.00
37806;DHT22;25082;50.870;0.022;2023-04-29T02:59:08;17.80;66.00
37806;DHT22;25082;50.870;0.022;2023-04-29T03:01:34;17.80;66.00
37806;DHT22;25082;50.870;0.022;2023-04-29T03:04:00;17.80;65.90
37806;DHT22;25082;50.870;0.022;2023-04-29T03:06:26;17.80;66.00
37806;DHT22;25082;50.870;0.022;2023-04-29T03:08:52;17.80;65.90
37806;DHT22;25082;50.870;0.022;2023-04-29T03:11:19;17.80;65.90
37806;DHT22;25082;50.870;0.022;2023-04-29T03:13:45;17.80;65.90
37806;DHT22;25082;50.870;0.022;2023-04-29T03:16:11;17.70;65.80
37806;DHT22;25082;50.870;0.022;2023-04-29T03:18:41;17.80;65.80
37806;DHT22;25082;50.870;0.022;2023-04-29T03:21:07;17.70;65.80
37806;DHT22;25082;50.870;0.022;2023-04-29T03:23:33;17.70;65.80
37806;DHT22;25082;50.870;0.022;2023-04-29T03:25:59;17.70;65.80
37806;DHT22;25082;50.870;0.022;2023-04-29T03:28:26;17.70;65.80
37806;DHT22;25082;50.870;0.022;2023-04-29T03:30:52;17.80;65.90
37806;DHT22;25082;50.870;0.022;2023-04-29T03:33:17;17.70;65.80
37806;DHT22;25082;50.870;0.022;2023-04-29T03:35:43;17.70;65.80
37806;DHT22;25082;50.870;0.022;2023-04-29T03:38:10;17.70;65.80
37806;DHT22;25082;50.870;0.022;2023-04-29T03:40:36;17.70;66.40
37806;DHT22;25082;50.870;0.022;2023-04-29T03:43:02;17.70;65.80
37806;DHT22;25082;50.870;0.022;2023-04-29T03:45:28;17.70;65.80
37806;DHT22;25082;50.870;0.022;2023-04-29T03:47:54;17.60;65.70
37806;DHT22;25082;50.870;0.022;2023-04-29T03:50:20;17.70;65.80
37806;DHT22;25082;50.870;0.022;2023-04-29T03:52:46;17.70;65.70
37806;DHT22;25082;50.870;0.022;2023-04-29T03:55:11;17.70;65.70
37806;DHT22;25082;50.870;0.022;2023-04-29T03:57:37;17.70;66.30
37806;DHT22;25082;50.870;0.022;2023-04-29T04:00:04;17.70;65.80
37806;DHT22;25082;50.870;0.022;2023-04-29T04:02:30;17.60;65.70
37806;DHT22;25082;50.870;0.022;2023-04-29T04:04:55;17.60;65.70
37806;DHT22;25082;50.870;0.022;2023-04-29T04:07:23;17.70;65.60
37806;DHT22;25082;50.870;0.022;2023-04-29T04:09:49;17.60;65.70
37806;DHT22;25082;50.870;0.022;2023-04-29T04:12:14;17.60;65.70
37806;DHT22;25082;50.870;0.022;2023-04-29T04:14:40;17.60;65.70
37806;DHT22;25082;50.870;0.022;2023-04-29T04:17:06;17.60;65.50
37806;DHT22;25082;50.870;0.022;2023-04-29T04:19:32;17.60;65.50
37806;DHT22;25082;50.870;0.022;2023-04-29T04:21:58;17.60;65.60
37806;DHT22;25082;50.870;0.022;2023-04-29T04:24:24;17.60;65.60
37806;DHT22;25082;50.870;0.022;2023-04-29T04:26:49;17.60;65.60
37806;DHT22;25082;50.870;0.022;2023-04-29T04:29:15;17.60;65.50
37806;DHT22;25082;50.870;0.022;2023-04-29T04:31:41;17.60;65.60
37806;DHT22;25082;50.870;0.022;2023-04-29T04:34:06;17.60;65.60
37806;DHT22;25082;50.870;0.022;2023-04-29T04:36:32;17.60;65.50
37806;DHT22;25082;50.870;0.022;2023-04-29T04:38:58;17.60;65.50
37806;DHT22;25082;50.870;0.022;2023-04-29T04:41:24;17.60;65.50
37806;DHT22;25082;50.870;0.022;2023-04-29T04:43:50;17.60;65.50
37806;DHT22;25082;50.870;0.022;2023-04-29T04:46:16;17.60;65.40
37806;DHT22;25082;50.870;0.022;2023-04-29T04:48:42;17.60;65.60
37806;DHT22;25082;50.870;0.022;2023-04-29T04:51:11;17.50;65.30
37806;DHT22;25082;50.870;0.022;2023-04-29T04:53:38;17.50;65.30
37806;DHT22;25082;50.870;0.022;2023-04-29T04:56:04;17.50;65.40
37806;DHT22;25082;50.870;0.022;2023-04-29T04:58:30;17.50;65.40
37806;DHT22;25082;50.870;0.022;2023-04-29T05:01:00;17.50;65.50
37806;DHT22;25082;50.870;0.022;2023-04-29T05:03:26;17.50;65.40
37806;DHT22;25082;50.870;0.022;2023-04-29T05:05:56;17.50;65.50
37806;DHT22;25082;50.870;0.022;2023-04-29T05:08:23;17.50;65.30
37806;DHT22;25082;50.870;0.022;2023-04-29T05:10:49;17.50;65.40
37806;DHT22;25082;50.870;0.022;2023-04-29T05:13:14;17.50;65.30
37806;DHT22;25082;50.870;0.022;2023-04-29T05:15:40;17.50;65.40
37806;DHT22;25082;50.870;0.022;2023-04-29T05:18:07;17.50;65.30
37806;DHT22;25082;50.870;0.022;2023-04-29T05:20:33;17.50;65.30
37806;DHT22;25082;50.870;0.022;2023-04-29T05:22:58;17.50;65.40
37806;DHT22;25082;50.870;0.022;2023-04-29T05:25:24;17.50;65.40
37806;DHT22;25082;50.870;0.022;2023-04-29T05:27:50;17.50;65.30
37806;DHT22;25082;50.870;0.022;2023-04-29T05:30:16;17.50;65.30
37806;DHT22;25082;50.870;0.022;2023-04-29T05:32:43;17.50;65.30
37806;DHT22;25082;50.870;0.022;2023-04-29T05:35:13;17.40;65.30
37806;DHT22;25082;50.870;0.022;2023-04-29T05:37:39;17.40;65.30
37806;DHT22;25082;50.870;0.022;2023-04-29T05:40:05;17.40;65.30
37806;DHT22;25082;50.870;0.022;2023-04-29T05:42:31;17.50;65.40
37806;DHT22;25082;50.870;0.022;2023-04-29T05:44:57;17.50;65.50
37806;DHT22;25082;50.870;0.022;2023-04-29T05:47:23;17.40;65.30
37806;DHT22;25082;50.870;0.022;2023-04-29T05:49:48;17.40;65.30
37806;DHT22;25082;50.870;0.022;2023-04-29T05:52:14;17.40;66.00
37806;DHT22;25082;50.870;0.022;2023-04-29T05:54:40;17.40;65.40
37806;DHT22;25082;50.870;0.022;2023-04-29T05:57:06;17.40;65.40
37806;DHT22;25082;50.870;0.022;2023-04-29T05:59:32;17.40;65.30
37806;DHT22;25082;50.870;0.022;2023-04-29T06:01:59;17.40;65.40
37806;DHT22;25082;50.870;0.022;2023-04-29T06:04:25;17.40;65.40
37806;DHT22;25082;50.870;0.022;2023-04-29T06:06:52;17.40;65.20
37806;DHT22;25082;50.870;0.022;2023-04-29T06:09:21;17.40;65.40
37806;DHT22;25082;50.870;0.022;2023-04-29T06:11:50;17.40;65.30
37806;DHT22;25082;50.870;0.022;2023-04-29T06:14:16;17.40;65.40
37806;DHT22;25082;50.870;0.022;2023-04-29T06:16:41;17.40;65.40
37806;DHT22;25082;50.870;0.022;2023-04-29T06:19:07;17.40;65.40
37806;DHT22;25082;50.870;0.022;2023-04-29T06:21:33;17.40;65.30
37806;DHT22;25082;50.870;0.022;2023-04-29T06:23:59;17.50;65.30
37806;DHT22;25082;50.870;0.022;2023-04-29T06:26:24;17.50;65.20
37806;DHT22;25082;50.870;0.022;2023-04-29T06:28:50;17.50;65.20
37806;DHT22;25082;50.870;0.022;2023-04-29T06:31:16;17.50;65.10
37806;DHT22;25082;50.870;0.022;2023-04-29T06:33:42;17.50;65.00
37806;DHT22;25082;50.870;0.022;2023-04-29T06:36:08;17.60;65.10
37806;DHT22;25082;50.870;0.022;2023-04-29T06:38:34;17.60;65.00
37806;DHT22;25082;50.870;0.022;2023-04-29T06:41:00;17.60;65.00
37806;DHT22;25082;50.870;0.022;2023-04-29T06:43:26;17.60;65.10
37806;DHT22;25082;50.870;0.022;2023-04-29T06:45:52;17.60;65.10
37806;DHT22;25082;50.870;0.022;2023-04-29T06:48:18;17.60;65.10
37806;DHT22;25082;50.870;0.022;2023-04-29T06:50:54;17.60;65.10
37806;DHT22;25082;50.870;0.022;2023-04-29T06:53:21;17.70;65.20
37806;DHT22;25082;50.870;0.022;2023-04-29T06:55:46;17.70;65.20
37806;DHT22;25082;50.870;0.022;2023-04-29T06:58:13;17.70;65.20
37806;DHT22;25082;50.870;0.022;2023-04-29T07:00:39;17.70;65.20
37806;DHT22;25082;50.870;0.022;2023-04-29T07:03:05;17.80;65.30
37806;DHT22;25082;50.870;0.022;2023-04-29T07:05:31;17.80;65.30
37806;DHT22;25082;50.870;0.022;2023-04-29T07:07:57;17.80;65.30
37806;DHT22;25082;50.870;0.022;2023-04-29T07:10:23;17.80;65.30
37806;DHT22;25082;50.870;0.022;2023-04-29T07:12:48;17.80;65.30
37806;DHT22;25082;50.870;0.022;2023-04-29T07:15:14;17.80;65.30
37806;DHT22;25082;50.870;0.022;2023-04-29T07:17:40;17.90;65.40
37806;DHT22;25082;50.870;0.022;2023-04-29T07:20:06;17.80;65.30
37806;DHT22;25082;50.870;0.022;2023-04-29T07:22:32;17.90;65.40
37806;DHT22;25082;50.870;0.022;2023-04-29T07:24:58;17.90;65.50
37806;DHT22;25082;50.870;0.022;2023-04-29T07:27:24;17.90;65.50
37806;DHT22;25082;50.870;0.022;2023-04-29T07:29:49;17.90;65.50
37806;DHT22;25082;50.870;0.022;2023-04-29T07:32:15;17.90;65.50
37806;DHT22;25082;50.870;0.022;2023-04-29T07:34:41;17.90;65.50
37806;DHT22;25082;50.870;0.022;2023-04-29T07:37:07;17.90;65.50
37806;DHT22;25082;50.870;0.022;2023-04-29T07:39:33;18.00;65.60
37806;DHT22;25082;50.870;0.022;2023-04-29T07:42:00;18.00;65.70
37806;DHT22;25082;50.870;0.022;2023-04-29T07:44:27;18.00;65.60
37806;DHT22;25082;50.870;0.022;2023-04-29T07:46:53;18.00;65.60
37806;DHT22;25082;50.870;0.022;2023-04-29T07:49:19;18.00;65.60
37806;DHT22;25082;50.870;0.022;2023-04-29T07:51:45;18.00;65.60
37806;DHT22;25082;50.870;0.022;2023-04-29T07:54:10;18.00;65.60
37806;DHT22;25082;50.870;0.022;2023-04-29T07:56:36;18.10;65.70
37806;DHT22;25082;50.870;0.022;2023-04-29T07:59:02;18.10;65.80
37806;DHT22;25082;50.870;0.022;2023-04-29T08:01:28;18.10;65.70
37806;DHT22;25082;50.870;0.022;2023-04-29T08:03:54;18.10;65.70
37806;DHT22;25082;50.870;0.022;2023-04-29T08:06:19;18.10;65.70
37806;DHT22;25082;50.870;0.022;2023-04-29T08:08:47;18.20;65.80
37806;DHT22;25082;50.870;0.022;2023-04-29T08:11:17;18.20;65.80
37806;DHT22;25082;50.870;0.022;2023-04-29T08:13:43;18.20;65.80
37806;DHT22;25082;50.870;0.022;2023-04-29T08:16:09;18.20;65.80
37806;DHT22;25082;50.870;0.022;2023-04-29T08:18:35;18.20;65.80
37806;DHT22;25082;50.870;0.022;2023-04-29T08:21:01;18.20;65.80
37806;DHT22;25082;50.870;0.022;2023-04-29T08:23:27;18.30;65.80
37806;DHT22;25082;50.870;0.022;2023-04-29T08:25:53;18.30;65.90
37806;DHT22;25082;50.870;0.022;2023-04-29T08:28:20;18.30;65.90
37806;DHT22;25082;50.870;0.022;2023-04-29T08:30:47;18.30;65.90
37806;DHT22;25082;50.870;0.022;2023-04-29T08:33:13;18.30;65.90
37806;DHT22;25082;50.870;0.022;2023-04-29T08:35:39;18.30;65.90
37806;DHT22;25082;50.870;0.022;2023-04-29T08:38:06;18.30;65.90
37806;DHT22;25082;50.870;0.022;2023-04-29T08:40:41;18.30;66.10
37806;DHT22;25082;50.870;0.022;2023-04-29T08:43:07;18.30;66.40
37806;DHT22;25082;50.870;0.022;2023-04-29T08:45:35;18.40;66.60
37806;DHT22;25082;50.870;0.022;2023-04-29T08:48:05;18.40;66.80
37806;DHT22;25082;50.870;0.022;2023-04-29T08:50:39;18.40;67.00
37806;DHT22;25082;50.870;0.022;2023-04-29T08:53:10;18.40;67.00
37806;DHT22;25082;50.870;0.022;2023-04-29T08:55:43;18.40;67.10
37806;DHT22;25082;50.870;0.022;2023-04-29T08:58:10;18.40;67.10
37806;DHT22;25082;50.870;0.022;2023-04-29T09:00:37;18.40;67.20
37806;DHT22;25082;50.870;0.022;2023-04-29T09:03:21;18.40;67.20
37806;DHT22;25082;50.870;0.022;2023-04-29T09:05:52;18.40;67.30
37806;DHT22;25082;50.870;0.022;2023-04-29T09:08:20;18.40;67.30
37806;DHT22;25082;50.870;0.022;2023-04-29T09:10:49;18.50;67.30
37806;DHT22;25082;50.870;0.022;2023-04-29T09:13:26;18.40;67.20
37806;DHT22;25082;50.870;0.022;2023-04-29T09:15:52;18.50;67.20
37806;DHT22;25082;50.870;0.022;2023-04-29T09:18:40;18.50;67.30
37806;DHT22;25082;50.870;0.022;2023-04-29T09:21:19;18.50;67.30
37806;DHT22;25082;50.870;0.022;2023-04-29T09:23:50;18.50;67.20
37806;DHT22;25082;50.870;0.022;2023-04-29T09:26:15;18.50;67.20
37806;DHT22;25082;50.870;0.022;2023-04-29T09:28:41;18.50;67.20
37806;DHT22;25082;50.870;0.022;2023-04-29T09:31:10;18.50;67.60
37806;DHT22;25082;50.870;0.022;2023-04-29T09:36:34;18.60;68.00
37806;DHT22;25082;50.870;0.022;2023-04-29T09:39:01;18.60;68.20
37806;DHT22;25082;50.870;0.022;2023-04-29T09:41:27;18.60;68.50
37806;DHT22;25082;50.870;0.022;2023-04-29T09:44:05;18.60;68.50
37806;DHT22;25082;50.870;0.022;2023-04-29T09:46:35;18.60;68.30
37806;DHT22;25082;50.870;0.022;2023-04-29T09:49:02;18.60;68.30
37806;DHT22;25082;50.870;0.022;2023-04-29T09:51:29;18.60;68.20
37806;DHT22;25082;50.870;0.022;2023-04-29T09:53:58;18.60;68.10
37806;DHT22;25082;50.870;0.022;2023-04-29T09:56:24;18.60;68.00
37806;DHT22;25082;50.870;0.022;2023-04-29T09:58:53;18.70;68.00
37806;DHT22;25082;50.870;0.022;2023-04-29T10:01:21;18.70;67.90
37806;DHT22;25082;50.870;0.022;2023-04-29T10:03:49;18.70;67.90
37806;DHT22;25082;50.870;0.022;2023-04-29T10:06:16;18.70;67.90
37806;DHT22;25082;50.870;0.022;2023-04-29T10:08:45;18.70;67.90
37806;DHT22;25082;50.870;0.022;2023-04-29T10:11:12;18.70;65.40
37806;DHT22;25082;50.870;0.022;2023-04-29T10:13:41;18.60;67.10
37806;DHT22;25082;50.870;0.022;2023-04-29T10:16:28;18.60;67.10
37806;DHT22;25082;50.870;0.022;2023-04-29T10:19:00;18.60;66.90
37806;DHT22;25082;50.870;0.022;2023-04-29T10:21:29;18.60;67.00
37806;DHT22;25082;50.870;0.022;2023-04-29T10:23:57;18.60;67.00
37806;DHT22;25082;50.870;0.022;2023-04-29T10:26:26;18.60;67.00
37806;DHT22;25082;50.870;0.022;2023-04-29T10:28:55;18.60;66.90
37806;DHT22;25082;50.870;0.022;2023-04-29T10:31:21;18.70;66.90
37806;DHT22;25082;50.870;0.022;2023-04-29T10:33:47;18.70;67.00
37806;DHT22;25082;50.870;0.022;2023-04-29T10:36:14;18.70;67.00
37806;DHT22;25082;50.870;0.022;2023-04-29T10:38:49;18.70;67.00
37806;DHT22;25082;50.870;0.022;2023-04-29T10:41:25;18.70;67.00
37806;DHT22;25082;50.870;0.022;2023-04-29T10:43:53;18.80;67.10
37806;DHT22;25082;50.870;0.022;2023-04-29T10:46:23;18.80;67.20
37806;DHT22;25082;50.870;0.022;2023-04-29T10:49:02;18.70;67.10
37806;DHT22;25082;50.870;0.022;2023-04-29T10:51:41;18.80;67.20
37806;DHT22;25082;50.870;0.022;2023-04-29T10:54:15;18.80;67.20
37806;DHT22;25082;50.870;0.022;2023-04-29T10:56:43;18.80;67.20
37806;DHT22;25082;50.870;0.022;2023-04-29T10:59:11;18.90;67.30
37806;DHT22;25082;50.870;0.022;2023-04-29T11:01:48;18.80;67.20
37806;DHT22;25082;50.870;0.022;2023-04-29T11:04:16;18.80;67.10
37806;DHT22;25082;50.870;0.022;2023-04-29T11:06:55;18.80;67.10
37806;DHT22;25082;50.870;0.022;2023-04-29T11:09:29;18.80;67.10
37806;DHT22;25082;50.870;0.022;2023-04-29T11:14:36;18.80;67.10
37806;DHT22;25082;50.870;0.022;2023-04-29T11:17:08;18.80;67.10
37806;DHT22;25082;50.870;0.022;2023-04-29T11:19:39;18.90;67.20
37806;DHT22;25082;50.870;0.022;2023-04-29T11:22:23;18.80;67.10
37806;DHT22;25082;50.870;0.022;2023-04-29T11:25:04;18.80;67.10
37806;DHT22;25082;50.870;0.022;2023-04-29T11:27:32;18.80;67.10
37806;DHT22;25082;50.870;0.022;2023-04-29T11:29:59;18.80;67.00
37806;DHT22;25082;50.870;0.022;2023-04-29T11:32:26;18.90;67.10
37806;DHT22;25082;50.870;0.022;2023-04-29T11:34:53;18.90;67.20
37806;DHT22;25082;50.870;0.022;2023-04-29T11:37:23;18.90;67.10
37806;DHT22;25082;50.870;0.022;2023-04-29T11:39:50;18.90;67.10
37806;DHT22;25082;50.870;0.022;2023-04-29T11:42:22;18.90;67.20
37806;DHT22;25082;50.870;0.022;2023-04-29T11:44:51;18.90;67.10
37806;DHT22;25082;50.870;0.022;2023-04-29T11:47:17;18.90;67.20
37806;DHT22;25082;50.870;0.022;2023-04-29T11:49:43;18.90;67.10
37806;DHT22;25082;50.870;0.022;2023-04-29T11:52:09;18.90;67.20
37806;DHT22;25082;50.870;0.022;2023-04-29T11:54:36;18.90;67.20
37806;DHT22;25082;50.870;0.022;2023-04-29T11:57:02;18.90;67.20
37806;DHT22;25082;50.870;0.022;2023-04-29T11:59:30;18.90;67.20
37806;DHT22;25082;50.870;0.022;2023-04-29T12:01:59;18.90;67.20
37806;DHT22;25082;50.870;0.022;2023-04-29T12:04:25;18.90;67.30
37806;DHT22;25082;50.870;0.022;2023-04-29T12:06:51;18.90;67.30
37806;DHT22;25082;50.870;0.022;2023-04-29T12:09:20;19.00;67.30
37806;DHT22;25082;50.870;0.022;2023-04-29T12:11:48;19.00;67.30
37806;DHT22;25082;50.870;0.022;2023-04-29T12:14:16;19.00;67.30
37806;DHT22;25082;50.870;0.022;2023-04-29T12:16:43;19.00;67.30
37806;DHT22;25082;50.870;0.022;2023-04-29T12:19:10;19.00;67.30
37806;DHT22;25082;50.870;0.022;2023-04-29T12:21:36;19.00;67.30
37806;DHT22;25082;50.870;0.022;2023-04-29T12:24:12;19.00;67.30
37806;DHT22;25082;50.870;0.022;2023-04-29T12:26:39;19.00;67.30
37806;DHT22;25082;50.870;0.022;2023-04-29T12:29:09;19.00;67.40
37806;DHT22;25082;50.870;0.022;2023-04-29T12:31:35;19.10;67.40
37806;DHT22;25082;50.870;0.022;2023-04-29T12:34:03;19.00;67.40
37806;DHT22;25082;50.870;0.022;2023-04-29T12:36:30;19.10;67.40
37806;DHT22;25082;50.870;0.022;2023-04-29T12:38:57;19.10;67.40
37806;DHT22;25082;50.870;0.022;2023-04-29T12:41:39;19.10;67.40
37806;DHT22;25082;50.870;0.022;2023-04-29T12:44:06;19.10;67.40
37806;DHT22;25082;50.870;0.022;2023-04-29T12:46:39;19.10;67.40
37806;DHT22;25082;50.870;0.022;2023-04-29T12:49:06;19.10;67.40
37806;DHT22;25082;50.870;0.022;2023-04-29T12:51:33;19.10;67.40
37806;DHT22;25082;50.870;0.022;2023-04-29T12:54:03;19.10;67.40
37806;DHT22;25082;50.870;0.022;2023-04-29T12:56:30;19.10;67.40
37806;DHT22;25082;50.870;0.022;2023-04-29T12:59:03;19.10;67.70
37806;DHT22;25082;50.870;0.022;2023-04-29T13:01:29;19.10;67.30
37806;DHT22;25082;50.870;0.022;2023-04-29T13:03:55;19.10;67.30
37806;DHT22;25082;50.870;0.022;2023-04-29T13:06:21;19.10;67.30
37806;DHT22;25082;50.870;0.022;2023-04-29T13:08:47;19.10;67.30
37806;DHT22;25082;50.870;0.022;2023-04-29T13:11:12;19.10;67.20
37806;DHT22;25082;50.870;0.022;2023-04-29T13:13:38;19.10;67.20
37806;DHT22;25082;50.870;0.022;2023-04-29T13:16:05;19.10;67.20
37806;DHT22;25082;50.870;0.022;2023-04-29T13:18:31;19.00;66.40
37806;DHT22;25082;50.870;0.022;2023-04-29T13:20:56;19.00;64.90
37806;DHT22;25082;50.870;0.022;2023-04-29T13:23:22;19.00;65.20
37806;DHT22;25082;50.870;0.022;2023-04-29T13:25:49;18.90;62.70
37806;DHT22;25082;50.870;0.022;2023-04-29T13:28:15;18.90;63.70
37806;DHT22;25082;50.870;0.022;2023-04-29T13:30:41;18.80;63.50
37806;DHT22;25082;50.870;0.022;2023-04-29T13:33:07;18.80;64.10
37806;DHT22;25082;50.870;0.022;2023-04-29T13:35:32;18.80;64.10
37806;DHT22;25082;50.870;0.022;2023-04-29T13:38:01;18.80;64.10
37806;DHT22;25082;50.870;0.022;2023-04-29T13:40:27;18.90;64.40
37806;DHT22;25082;50.870;0.022;2023-04-29T13:42:52;18.90;64.50
37806;DHT22;25082;50.870;0.022;2023-04-29T13:45:18;18.90;64.60
37806;DHT22;25082;50.870;0.022;2023-04-29T13:47:44;19.00;64.80
37806;DHT22;25082;50.870;0.022;2023-04-29T13:50:10;19.00;64.90
37806;DHT22;25082;50.870;0.022;2023-04-29T13:52:35;19.00;65.00
37806;DHT22;25082;50.870;0.022;2023-04-29T13:55:01;19.00;65.10
37806;DHT22;25082;50.870;0.022;2023-04-29T13:57:27;19.00;65.20
37806;DHT22;25082;50.870;0.022;2023-04-29T13:59:53;19.00;65.30
37806;DHT22;25082;50.870;0.022;2023-04-29T14:02:20;19.00;65.40
37806;DHT22;25082;50.870;0.022;2023-04-29T14:04:46;19.00;65.50
37806;DHT22;25082;50.870;0.022;2023-04-29T14:07:16;19.10;65.60
37806;DHT22;25082;50.870;0.022;2023-04-29T14:09:41;19.00;65.60
37806;DHT22;25082;50.870;0.022;2023-04-29T14:12:07;19.00;65.60
37806;DHT22;25082;50.870;0.022;2023-04-29T14:14:33;19.00;65.70
37806;DHT22;25082;50.870;0.022;2023-04-29T14:16:59;19.00;65.70
37806;DHT22;25082;50.870;0.022;2023-04-29T14:19:26;19.00;65.80
37806;DHT22;25082;50.870;0.022;2023-04-29T14:21:51;19.10;65.90
37806;DHT22;25082;50.870;0.022;2023-04-29T14:24:17;19.10;65.90
37806;DHT22;25082;50.870;0.022;2023-04-29T14:26:43;19.10;66.00
37806;DHT22;25082;50.870;0.022;2023-04-29T14:29:09;19.10;66.00
37806;DHT22;25082;50.870;0.022;2023-04-29T14:31:35;19.10;66.00
37806;DHT22;25082;50.870;0.022;2023-04-29T14:34:03;19.10;66.00
37806;DHT22;25082;50.870;0.022;2023-04-29T14:36:29;19.10;66.00
37806;DHT22;25082;50.870;0.022;2023-04-29T14:38:57;19.10;66.00
37806;DHT22;25082;50.870;0.022;2023-04-29T14:41:23;19.10;66.00
37806;DHT22;25082;50.870;0.022;2023-04-29T14:43:49;19.20;66.10
37806;DHT22;25082;50.870;0.022;2023-04-29T14:46:15;19.10;66.10
37806;DHT22;25082;50.870;0.022;2023-04-29T14:48:41;19.10;66.30
37806;DHT22;25082;50.870;0.022;2023-04-29T14:51:07;19.20;66.30
37806;DHT22;25082;50.870;0.022;2023-04-29T14:53:33;19.20;66.40
37806;DHT22;25082;50.870;0.022;2023-04-29T14:55:59;19.20;66.40
37806;DHT22;25082;50.870;0.022;2023-04-29T14:58:25;19.20;66.40
37806;DHT22;25082;50.870;0.022;2023-04-29T15:00:50;19.20;66.50
37806;DHT22;25082;50.870;0.022;2023-04-29T15:03:17;19.20;66.50
37806;DHT22;25082;50.870;0.022;2023-04-29T15:05:42;19.20;66.50
37806;DHT22;25082;50.870;0.022;2023-04-29T15:08:09;19.20;66.50
37806;DHT22;25082;50.870;0.022;2023-04-29T15:10:35;19.20;66.50
37806;DHT22;25082;50.870;0.022;2023-04-29T15:13:01;19.20;66.60
37806;DHT22;25082;50.870;0.022;2023-04-29T15:15:27;19.20;66.60
37806;DHT22;25082;50.870;0.022;2023-04-29T15:17:53;19.20;66.70
37806;DHT22;25082;50.870;0.022;2023-04-29T15:20:19;19.30;66.80
37806;DHT22;25082;50.870;0.022;2023-04-29T15:22:44;19.30;66.80
37806;DHT22;25082;50.870;0.022;2023-04-29T15:25:11;19.30;66.80
37806;DHT22;25082;50.870;0.022;2023-04-29T15:27:37;19.30;66.80
37806;DHT22;25082;50.870;0.022;2023-04-29T15:30:04;19.30;66.90
37806;DHT22;25082;50.870;0.022;2023-04-29T15:32:30;19.30;66.90
37806;DHT22;25082;50.870;0.022;2023-04-29T15:34:59;19.30;66.90
37806;DHT22;25082;50.870;0.022;2023-04-29T15:37:28;19.30;66.90
37806;DHT22;25082;50.870;0.022;2023-04-29T15:39:57;19.30;66.90
37806;DHT22;25082;50.870;0.022;2023-04-29T15:42:23;19.30;66.90
37806;DHT22;25082;50.870;0.022;2023-04-29T15:44:49;19.30;67.00